createdAt,value
2022-09-02T00:00:20.604Z,99.90
2022-09-02T00:02:50.673Z,99.90
2022-09-02T00:05:21.743Z,99.90
2022-09-02T00:07:49.903Z,99.90
2022-09-02T00:10:18.143Z,99.90
2022-09-02T00:12:47.916Z,99.90
2022-09-02T00:15:16.302Z,99.90
2022-09-02T00:17:44.583Z,99.90
2022-09-02T00:20:12.844Z,99.90
2022-09-02T00:22:41.157Z,99.90
2022-09-02T00:25:09.943Z,99.90
2022-09-02T00:27:38.499Z,99.90
2022-09-02T00:30:08.942Z,99.90
2022-09-02T00:32:37.197Z,99.90
2022-09-02T00:35:06.254Z,99.90
2022-09-02T00:37:34.585Z,99.90
2022-09-02T00:40:02.966Z,99.90
2022-09-02T00:42:31.517Z,99.90
2022-09-02T00:45:00.069Z,99.90
2022-09-02T00:47:31.353Z,99.90
2022-09-02T00:49:59.703Z,99.90
2022-09-02T00:52:31.610Z,99.90
2022-09-02T00:55:00.598Z,99.90
2022-09-02T00:57:31.254Z,99.90
2022-09-02T01:00:02.394Z,99.90
2022-09-02T01:02:32.285Z,99.90
2022-09-02T01:05:03.310Z,99.90
2022-09-02T01:07:34.894Z,99.90
2022-09-02T01:10:03.212Z,99.90
2022-09-02T01:12:31.719Z,99.90
2022-09-02T01:14:59.979Z,99.90
2022-09-02T01:17:28.263Z,99.90
2022-09-02T01:19:59.396Z,99.90
2022-09-02T01:22:30.092Z,99.90
2022-09-02T01:25:00.121Z,99.90
2022-09-02T01:27:28.884Z,99.90
2022-09-02T01:29:58.280Z,99.90
2022-09-02T01:32:26.662Z,99.90
2022-09-02T01:34:54.891Z,99.90
2022-09-02T01:37:23.227Z,99.90
2022-09-02T01:39:53.041Z,99.90
2022-09-02T01:42:21.323Z,99.90
2022-09-02T01:44:49.455Z,99.90
2022-09-02T01:47:19.170Z,99.90
2022-09-02T01:49:47.730Z,99.90
2022-09-02T01:52:16.050Z,99.90
2022-09-02T01:54:44.650Z,99.90
2022-09-02T01:57:14.905Z,99.90
2022-09-02T01:59:44.108Z,99.90
2022-09-02T02:02:12.415Z,99.90
2022-09-02T02:04:42.716Z,99.90
2022-09-02T02:07:10.982Z,99.90
2022-09-02T02:09:39.283Z,99.90
2022-09-02T02:12:08.041Z,99.90
2022-09-02T02:14:37.712Z,99.90
2022-09-02T02:17:06.354Z,99.90
2022-09-02T02:19:34.562Z,99.90
2022-09-02T02:22:02.832Z,99.90
2022-09-02T02:24:31.103Z,1.00
2022-09-02T02:26:59.321Z,1.00
2022-09-02T02:29:27.462Z,1.00
2022-09-02T02:31:57.191Z,99.90
2022-09-02T02:34:25.621Z,99.90
2022-09-02T02:36:53.858Z,99.90
2022-09-02T02:39:22.218Z,1.00
2022-09-02T02:41:50.604Z,1.00
2022-09-02T02:44:18.759Z,1.00
2022-09-02T02:46:47.050Z,1.00
2022-09-02T02:49:16.627Z,99.90
2022-09-02T02:51:44.867Z,1.00
2022-09-02T02:54:14.701Z,99.90
2022-09-02T02:56:42.949Z,99.90
2022-09-02T02:59:11.150Z,99.90
2022-09-02T03:01:39.417Z,99.90
2022-09-02T03:04:07.890Z,99.90
2022-09-02T03:06:37.408Z,1.00
2022-09-02T03:09:05.949Z,1.00
2022-09-02T03:11:34.147Z,99.90
2022-09-02T03:14:02.328Z,99.90
2022-09-02T03:16:30.595Z,99.90
2022-09-02T03:18:58.829Z,29.10
2022-09-02T03:21:27.091Z,99.90
2022-09-02T03:23:56.660Z,36.70
2022-09-02T03:26:26.391Z,1.00
2022-09-02T03:28:56.750Z,1.00
2022-09-02T03:31:25.435Z,99.90
2022-09-02T03:33:53.783Z,99.90
2022-09-02T03:36:23.383Z,17.40
2022-09-02T03:38:51.543Z,1.00
2022-09-02T03:41:21.446Z,58.60
2022-09-02T03:43:49.711Z,92.40
2022-09-02T03:46:17.985Z,1.00
2022-09-02T03:48:46.282Z,1.00
2022-09-02T03:51:14.457Z,92.60
2022-09-02T03:53:42.628Z,1.00
2022-09-02T03:56:12.657Z,1.00
2022-09-02T03:58:42.887Z,1.00
2022-09-02T04:01:14.813Z,1.00
2022-09-02T04:03:43.339Z,1.00
2022-09-02T04:06:12.852Z,71.60
2022-09-02T04:08:41.086Z,99.90
2022-09-02T04:11:09.741Z,99.90
2022-09-02T04:13:37.918Z,99.90
2022-09-02T04:16:11.564Z,99.90
2022-09-02T04:18:39.758Z,99.60
2022-09-02T04:21:07.974Z,83.60
2022-09-02T04:23:36.153Z,1.00
2022-09-02T04:26:05.642Z,1.00
2022-09-02T04:28:33.928Z,1.00
2022-09-02T04:31:04.606Z,99.90
2022-09-02T04:33:34.280Z,99.90
2022-09-02T04:36:05.066Z,99.90
2022-09-02T04:38:33.532Z,99.90
2022-09-02T04:41:02.301Z,99.90
2022-09-02T04:43:30.457Z,99.90
2022-09-02T04:45:58.785Z,99.90
2022-09-02T04:48:26.971Z,99.90
2022-09-02T04:50:56.787Z,99.90
2022-09-02T04:53:24.957Z,99.90
2022-09-02T04:55:57.796Z,99.90
2022-09-02T04:58:26.477Z,99.90
2022-09-02T05:00:55.007Z,99.90
2022-09-02T05:03:23.769Z,99.90
2022-09-02T05:06:01.569Z,99.90
2022-09-02T05:08:29.733Z,99.90
2022-09-02T05:10:58.269Z,99.90
2022-09-02T05:13:26.640Z,99.90
2022-09-02T05:15:54.903Z,99.90
2022-09-02T05:18:23.687Z,99.90
2022-09-02T05:20:51.825Z,99.90
2022-09-02T05:23:21.506Z,99.90
2022-09-02T05:25:49.606Z,99.90
2022-09-02T05:28:17.908Z,99.90
2022-09-02T05:30:46.163Z,99.90
2022-09-02T05:33:14.738Z,99.90
2022-09-02T05:35:45.448Z,99.90
2022-09-02T05:38:14.861Z,99.90
2022-09-02T05:40:44.430Z,99.90
2022-09-02T05:43:12.521Z,99.90
2022-09-02T05:45:41.118Z,99.90
2022-09-02T05:48:23.237Z,99.90
2022-09-02T05:50:57.488Z,99.90
2022-09-02T05:53:27.707Z,99.90
2022-09-02T05:55:57.345Z,99.90
2022-09-02T05:58:25.587Z,99.90
2022-09-02T06:00:53.817Z,99.90
2022-09-02T06:03:22.111Z,99.90
2022-09-02T06:05:56.174Z,99.90
2022-09-02T06:08:24.406Z,99.90
2022-09-02T06:10:52.596Z,99.90
2022-09-02T06:13:22.926Z,99.90
2022-09-02T06:15:51.546Z,99.90
2022-09-02T06:18:19.766Z,99.90
2022-09-02T06:20:48.806Z,99.90
2022-09-02T06:23:17.495Z,99.90
2022-09-02T06:25:46.687Z,99.90
2022-09-02T06:28:14.968Z,99.90
2022-09-02T06:30:45.621Z,99.90
2022-09-02T06:33:13.935Z,99.90
2022-09-02T06:35:43.432Z,99.90
2022-09-02T06:38:12.166Z,99.90
2022-09-02T06:40:47.985Z,99.90
2022-09-02T06:43:16.273Z,99.90
2022-09-02T06:45:46.212Z,99.90
2022-09-02T06:48:14.550Z,99.90
2022-09-02T06:50:43.159Z,99.90
2022-09-02T06:53:11.873Z,99.90
2022-09-02T06:55:40.249Z,99.90
2022-09-02T06:58:08.352Z,99.90
2022-09-02T07:00:37.091Z,99.90
2022-09-02T07:03:24.249Z,99.90
2022-09-02T07:06:00.989Z,99.90
2022-09-02T07:08:29.274Z,99.90
2022-09-02T07:10:57.384Z,99.90
2022-09-02T07:13:25.559Z,99.90
2022-09-02T07:15:53.733Z,99.90
2022-09-02T07:18:23.311Z,99.90
2022-09-02T07:20:51.402Z,99.90
2022-09-02T07:23:20.550Z,96.60
2022-09-02T07:25:48.740Z,93.60
2022-09-02T07:28:17.001Z,92.60
2022-09-02T07:30:45.444Z,91.30
2022-09-02T07:33:14.592Z,98.20
2022-09-02T07:35:44.257Z,93.80
2022-09-02T07:38:12.390Z,91.30
2022-09-02T07:40:40.727Z,90.60
2022-09-02T07:43:10.276Z,80.80
2022-09-02T07:45:38.513Z,87.40
2022-09-02T07:48:07.800Z,82.90
2022-09-02T07:50:36.124Z,86.90
2022-09-02T07:53:06.504Z,96.50
2022-09-02T07:55:36.125Z,85.40
2022-09-02T07:58:04.889Z,73.60
2022-09-02T08:00:33.012Z,71.30
2022-09-02T08:03:01.889Z,72.70
2022-09-02T08:05:31.018Z,63.60
2022-09-02T08:07:59.178Z,64.70
2022-09-02T08:10:29.601Z,61.70
2022-09-02T08:12:58.015Z,62.40
2022-09-02T08:15:28.809Z,58.60
2022-09-02T08:17:57.419Z,62.40
2022-09-02T08:20:25.584Z,57.60
2022-09-02T08:23:05.043Z,58.00
2022-09-02T08:25:42.549Z,60.10
2022-09-02T08:28:10.710Z,73.30
2022-09-02T08:30:38.784Z,55.60
2022-09-02T08:33:06.929Z,50.10
2022-09-02T08:35:35.075Z,44.10
2022-09-02T08:38:03.217Z,44.80
2022-09-02T08:40:34.906Z,41.30
2022-09-02T08:43:22.158Z,39.30
2022-09-02T08:45:50.679Z,35.50
2022-09-02T08:48:21.448Z,35.30
2022-09-02T08:50:51.673Z,37.30
2022-09-02T08:53:21.235Z,37.00
2022-09-02T08:55:54.218Z,27.20
2022-09-02T08:58:24.861Z,27.20
2022-09-02T09:00:56.448Z,22.50
2022-09-02T09:03:27.537Z,20.70
2022-09-02T09:05:58.894Z,15.80
2022-09-02T09:08:29.956Z,13.40
2022-09-02T09:11:02.179Z,12.40
2022-09-02T09:13:51.175Z,18.90
2022-09-02T09:16:24.321Z,9.50
2022-09-02T09:18:56.615Z,7.30
2022-09-02T09:23:59.218Z,8.00
2022-09-02T09:26:31.157Z,6.00
2022-09-02T09:29:00.893Z,4.40
2022-09-02T09:31:31.466Z,3.30
2022-09-02T09:34:00.665Z,4.10
2022-09-02T09:36:49.302Z,2.30
2022-09-02T09:39:25.328Z,1.00
2022-09-02T09:41:54.358Z,1.00
2022-09-02T09:44:42.208Z,1.00
2022-09-02T09:47:14.781Z,1.00
2022-09-02T09:49:46.321Z,1.00
2022-09-02T09:52:24.032Z,1.00
2022-09-02T09:55:24.293Z,1.00
2022-09-02T09:57:54.896Z,1.00
2022-09-02T10:00:28.878Z,1.00
2022-09-02T10:02:58.432Z,1.00
2022-09-02T10:05:34.551Z,1.00
2022-09-02T10:08:03.579Z,1.00
2022-09-02T10:10:32.295Z,1.00
2022-09-02T10:13:01.915Z,1.00
2022-09-02T10:15:38.317Z,1.00
2022-09-02T10:18:14.733Z,1.00
2022-09-02T10:21:11.604Z,1.00
2022-09-02T10:23:43.836Z,1.00
2022-09-02T10:26:17.886Z,1.00
2022-09-02T10:29:17.137Z,1.00
2022-09-02T10:31:50.276Z,1.00
2022-09-02T10:34:22.496Z,1.00
2022-09-02T10:37:09.374Z,1.00
2022-09-02T10:39:46.781Z,1.00
2022-09-02T10:42:18.032Z,1.00
2022-09-02T10:44:47.965Z,1.00
2022-09-02T10:47:20.656Z,1.00
2022-09-02T10:50:00.243Z,1.00
2022-09-02T10:52:41.817Z,1.00
2022-09-02T10:55:17.675Z,1.00
2022-09-02T10:57:48.969Z,1.00
2022-09-02T11:00:17.871Z,1.00
2022-09-02T11:02:50.551Z,1.00
2022-09-02T11:05:20.073Z,1.00
2022-09-02T11:07:51.393Z,1.00
2022-09-02T11:10:21.482Z,1.00
2022-09-02T11:12:52.283Z,1.00
2022-09-02T11:15:22.127Z,1.00
2022-09-02T11:17:56.128Z,1.00
2022-09-02T11:20:30.818Z,1.00
2022-09-02T11:23:00.854Z,1.00
2022-09-02T11:25:31.438Z,1.00
2022-09-02T11:28:03.895Z,1.00
2022-09-02T11:30:37.292Z,1.00
2022-09-02T11:33:12.344Z,1.00
2022-09-02T11:35:42.661Z,1.00
2022-09-02T11:38:18.285Z,1.00
2022-09-02T11:43:51.579Z,1.00
2022-09-02T11:46:46.513Z,1.00
2022-09-02T11:49:38.390Z,1.00
2022-09-02T11:52:12.164Z,1.00
2022-09-02T11:54:41.595Z,1.00
2022-09-02T11:57:12.945Z,1.00
2022-09-02T12:00:03.682Z,1.00
2022-09-02T12:02:37.692Z,1.00
2022-09-02T12:05:43.959Z,1.00
2022-09-02T12:08:15.296Z,1.00
2022-09-02T12:11:00.200Z,1.00
2022-09-02T12:13:35.769Z,1.00
2022-09-02T12:16:38.987Z,1.00
2022-09-02T12:19:27.811Z,1.00
2022-09-02T12:22:38.660Z,1.00
2022-09-02T12:25:45.289Z,1.00
2022-09-02T12:28:25.304Z,1.00
2022-09-02T12:31:40.707Z,1.00
2022-09-02T12:34:42.236Z,1.00
2022-09-02T12:37:11.720Z,1.00
2022-09-02T12:39:56.040Z,1.00
2022-09-02T12:42:28.243Z,1.00
2022-09-02T12:45:07.670Z,1.00
2022-09-02T12:47:47.836Z,1.00
2022-09-02T12:50:21.053Z,1.00
2022-09-02T12:52:49.641Z,1.00
2022-09-02T12:55:21.965Z,1.00
2022-09-02T12:57:51.756Z,1.00
2022-09-02T13:00:30.751Z,1.00
2022-09-02T13:03:04.717Z,1.00
2022-09-02T13:05:36.539Z,1.00
2022-09-02T13:08:35.000Z,1.00
2022-09-02T13:11:37.432Z,1.00
2022-09-02T13:14:55.145Z,1.00
2022-09-02T13:17:37.143Z,1.00
2022-09-02T13:20:35.261Z,1.00
2022-09-02T13:23:17.668Z,1.00
2022-09-02T13:26:07.137Z,1.00
2022-09-02T13:28:59.996Z,1.00
2022-09-02T13:31:28.651Z,1.00
2022-09-02T13:34:04.233Z,1.00
2022-09-02T13:36:36.272Z,1.00
2022-09-02T13:39:17.785Z,1.00
2022-09-02T13:41:46.123Z,1.00
2022-09-02T13:44:15.537Z,1.00
2022-09-02T13:46:48.636Z,1.00
2022-09-02T13:49:25.600Z,1.00
2022-09-02T13:51:55.265Z,1.00
2022-09-02T13:54:34.545Z,1.00
2022-09-02T13:57:04.578Z,1.00
2022-09-02T13:59:33.982Z,1.00
2022-09-02T14:02:04.280Z,1.00
2022-09-02T14:04:36.604Z,1.00
2022-09-02T14:07:04.970Z,1.00
2022-09-02T14:09:35.861Z,1.00
2022-09-02T14:12:04.866Z,1.00
2022-09-02T14:14:33.125Z,1.00
2022-09-02T14:17:19.607Z,1.00
2022-09-02T14:19:49.729Z,1.00
2022-09-02T14:22:24.204Z,1.00
2022-09-02T14:24:52.367Z,1.00
2022-09-02T14:27:21.535Z,1.00
2022-09-02T14:29:53.192Z,1.00
2022-09-02T14:32:23.346Z,1.00
2022-09-02T14:35:10.726Z,1.00
2022-09-02T14:37:50.280Z,1.00
2022-09-02T14:40:19.799Z,1.00
2022-09-02T14:42:48.769Z,1.00
2022-09-02T14:45:25.309Z,1.00
2022-09-02T14:47:53.588Z,1.00
2022-09-02T14:50:24.783Z,1.00
2022-09-02T14:52:54.048Z,1.00
2022-09-02T14:55:55.839Z,1.00
2022-09-02T14:58:27.127Z,1.00
2022-09-02T15:00:56.809Z,1.00
2022-09-02T15:03:25.749Z,1.00
2022-09-02T15:05:55.364Z,1.00
2022-09-02T15:08:23.758Z,1.00
2022-09-02T15:10:52.132Z,1.00
2022-09-02T15:13:26.522Z,1.00
2022-09-02T15:15:55.628Z,1.00
2022-09-02T15:18:24.306Z,1.00
2022-09-02T15:20:54.307Z,1.00
2022-09-02T15:23:24.250Z,1.00
2022-09-02T15:25:54.368Z,1.00
2022-09-02T15:28:22.557Z,1.00
2022-09-02T15:30:50.909Z,1.00
2022-09-02T15:33:19.270Z,1.00
2022-09-02T15:35:47.847Z,1.00
2022-09-02T15:38:17.456Z,1.00
2022-09-02T15:40:46.405Z,1.00
2022-09-02T15:43:14.762Z,1.00
2022-09-02T15:45:45.882Z,1.00
2022-09-02T15:48:14.227Z,1.00
2022-09-02T15:50:42.701Z,1.00
2022-09-02T15:53:17.101Z,1.00
2022-09-02T15:55:45.327Z,1.00
2022-09-02T15:58:13.760Z,1.00
2022-09-02T16:00:43.881Z,1.00
2022-09-02T16:03:12.631Z,1.00
2022-09-02T16:05:43.310Z,1.00
2022-09-02T16:08:11.698Z,1.00
2022-09-02T16:10:41.403Z,1.00
2022-09-02T16:13:09.784Z,1.00
2022-09-02T16:15:38.244Z,1.00
2022-09-02T16:18:06.729Z,1.00
2022-09-02T16:20:35.023Z,1.00
2022-09-02T16:23:03.423Z,1.00
2022-09-02T16:25:31.811Z,1.00
2022-09-02T16:28:02.119Z,1.00
2022-09-02T16:30:30.672Z,1.00
2022-09-02T16:32:59.901Z,1.00
2022-09-02T16:35:28.238Z,1.00
2022-09-02T16:37:58.086Z,1.00
2022-09-02T16:40:26.523Z,1.00
2022-09-02T16:42:54.999Z,1.00
2022-09-02T16:45:24.757Z,1.00
2022-09-02T16:47:53.145Z,1.00
2022-09-02T16:50:21.550Z,1.00
2022-09-02T16:52:50.488Z,1.00
2022-09-02T16:55:18.835Z,1.00
2022-09-02T16:57:47.249Z,1.00
2022-09-02T17:00:17.364Z,1.00
2022-09-02T17:02:47.689Z,1.00
2022-09-02T17:05:17.765Z,1.00
2022-09-02T17:07:48.331Z,1.00
2022-09-02T17:10:16.660Z,1.00
2022-09-02T17:12:44.997Z,1.00
2022-09-02T17:15:13.577Z,1.00
2022-09-02T17:17:42.738Z,1.00
2022-09-02T17:20:13.344Z,1.00
2022-09-02T17:22:41.826Z,1.00
2022-09-02T17:25:10.521Z,1.00
2022-09-02T17:27:38.766Z,1.00
2022-09-02T17:30:07.893Z,1.00
2022-09-02T17:32:36.457Z,1.00
2022-09-02T17:35:04.837Z,1.00
2022-09-02T17:37:37.174Z,1.00
2022-09-02T17:40:06.535Z,1.00
2022-09-02T17:42:34.126Z,1.00
2022-09-02T17:45:02.853Z,1.00
2022-09-02T17:47:31.851Z,1.00
2022-09-02T17:50:00.537Z,1.00
2022-09-02T17:52:28.927Z,1.00
2022-09-02T17:54:58.662Z,1.00
2022-09-02T17:57:32.722Z,1.00
2022-09-02T18:00:07.686Z,1.00
2022-09-02T18:02:50.422Z,1.00
2022-09-02T18:05:22.821Z,1.00
2022-09-02T18:08:01.483Z,1.00
2022-09-02T18:10:33.888Z,1.00
2022-09-02T18:13:04.583Z,1.00
2022-09-02T18:15:33.681Z,1.00
2022-09-02T18:18:03.990Z,1.00
2022-09-02T18:20:37.474Z,1.00
2022-09-02T18:23:15.676Z,1.00
2022-09-02T18:25:51.223Z,1.00
2022-09-02T18:28:40.403Z,1.00
2022-09-02T18:31:16.237Z,1.00
2022-09-02T18:34:05.805Z,1.00
2022-09-02T18:36:39.254Z,1.00
2022-09-02T18:39:20.859Z,1.00
2022-09-02T18:41:59.192Z,1.00
2022-09-02T18:44:36.207Z,1.00
2022-09-02T18:47:07.259Z,1.00
2022-09-02T18:49:35.838Z,1.00
2022-09-02T18:52:06.589Z,1.00
2022-09-02T18:54:38.760Z,1.00
2022-09-02T18:57:08.889Z,1.00
2022-09-02T18:59:40.800Z,1.00
2022-09-02T19:02:17.289Z,1.00
2022-09-02T19:04:45.557Z,1.00
2022-09-02T19:07:31.661Z,1.00
2022-09-02T19:10:01.358Z,1.00
2022-09-02T19:12:34.847Z,1.00
2022-09-02T19:15:03.238Z,1.00
2022-09-02T19:17:31.496Z,1.00
2022-09-02T19:20:00.333Z,1.00
2022-09-02T19:22:28.781Z,1.00
2022-09-02T19:24:58.647Z,1.00
2022-09-02T19:27:30.915Z,1.00
2022-09-02T19:30:06.807Z,1.00
2022-09-02T19:32:35.817Z,1.00
2022-09-02T19:35:06.868Z,1.00
2022-09-02T19:37:44.243Z,1.00
2022-09-02T19:40:13.107Z,1.00
2022-09-02T19:42:42.458Z,1.00
2022-09-02T19:45:16.163Z,1.00
2022-09-02T19:48:06.077Z,1.00
2022-09-02T19:50:33.016Z,1.00
2022-09-02T19:53:01.519Z,1.00
2022-09-02T19:55:29.775Z,1.00
2022-09-02T19:58:00.468Z,1.00
2022-09-02T20:00:30.064Z,1.00
2022-09-02T20:02:58.266Z,1.00
2022-09-02T20:05:26.505Z,1.00
2022-09-02T20:07:54.988Z,1.00
2022-09-02T20:10:27.851Z,1.00
2022-09-02T20:12:56.539Z,1.00
2022-09-02T20:15:24.860Z,1.00
2022-09-02T20:17:54.535Z,1.00
2022-09-02T20:20:26.679Z,1.00
2022-09-02T20:22:55.937Z,1.00
2022-09-02T20:25:40.946Z,1.00
2022-09-02T20:28:12.973Z,1.00
2022-09-02T20:30:41.220Z,1.00
2022-09-02T20:33:16.526Z,1.00
2022-09-02T20:36:00.676Z,1.00
2022-09-02T20:38:48.312Z,1.00
2022-09-02T20:41:23.080Z,1.00
2022-09-02T20:44:09.394Z,1.00
2022-09-02T20:46:56.347Z,1.00
2022-09-02T20:49:35.929Z,1.00
2022-09-02T20:52:06.108Z,1.00
2022-09-02T20:54:39.979Z,1.00
2022-09-02T20:57:29.625Z,1.00
2022-09-02T21:00:03.818Z,1.00
2022-09-02T21:02:34.105Z,1.00
2022-09-02T21:05:05.730Z,1.00
2022-09-02T21:07:35.785Z,1.00
2022-09-02T21:10:06.841Z,1.00
2022-09-02T21:12:38.649Z,1.00
2022-09-02T21:15:10.738Z,1.00
2022-09-02T21:17:46.435Z,1.00
2022-09-02T21:20:21.142Z,1.00
2022-09-02T21:22:52.629Z,1.00
2022-09-02T21:25:23.849Z,1.00
2022-09-02T21:27:53.800Z,1.00
2022-09-02T21:30:23.036Z,1.00
2022-09-02T21:32:52.719Z,1.00
2022-09-02T21:35:23.762Z,1.00
2022-09-02T21:37:56.161Z,1.00
2022-09-02T21:40:24.603Z,1.00
2022-09-02T21:43:02.035Z,1.00
2022-09-02T21:45:34.667Z,1.00
2022-09-02T21:48:09.395Z,1.00
2022-09-02T21:50:43.500Z,1.00
2022-09-02T21:53:17.169Z,1.00
2022-09-02T21:55:52.529Z,1.00
2022-09-02T21:58:30.577Z,1.00
2022-09-02T22:01:02.576Z,1.00
2022-09-02T22:03:40.183Z,1.00
2022-09-02T22:06:12.941Z,1.00
2022-09-02T22:08:44.742Z,1.00
2022-09-02T22:11:15.680Z,1.00
2022-09-02T22:13:43.917Z,1.00
2022-09-02T22:16:22.241Z,1.00
2022-09-02T22:19:01.289Z,1.00
2022-09-02T22:21:38.033Z,1.00
2022-09-02T22:24:06.903Z,1.00
2022-09-02T22:26:40.313Z,1.00
2022-09-02T22:29:12.681Z,1.00
2022-09-02T22:31:42.730Z,1.00
2022-09-02T22:34:12.922Z,1.00
2022-09-02T22:36:56.644Z,1.00
2022-09-02T22:39:32.089Z,1.00
2022-09-02T22:42:04.445Z,1.00
2022-09-02T22:44:50.268Z,1.00
2022-09-02T22:47:38.184Z,1.00
2022-09-02T22:50:24.543Z,1.00
2022-09-02T22:52:55.957Z,1.00
2022-09-02T22:55:32.753Z,1.00
2022-09-02T22:58:05.599Z,1.00
2022-09-02T23:00:35.740Z,1.00
2022-09-02T23:03:08.054Z,1.00
2022-09-02T23:05:49.435Z,1.00
2022-09-02T23:08:20.772Z,1.00
2022-09-02T23:10:53.424Z,1.00
2022-09-02T23:13:33.078Z,1.00
2022-09-02T23:16:04.859Z,1.00
2022-09-02T23:18:37.884Z,1.00
2022-09-02T23:21:09.161Z,1.00
2022-09-02T23:23:40.706Z,1.00
2022-09-02T23:26:16.691Z,1.00
2022-09-02T23:28:54.463Z,1.00
2022-09-02T23:31:26.032Z,1.00
2022-09-02T23:34:00.138Z,1.00
2022-09-02T23:36:34.332Z,1.00
2022-09-02T23:39:18.799Z,1.00
2022-09-02T23:41:47.784Z,1.00
2022-09-02T23:44:16.900Z,1.00
2022-09-02T23:46:49.564Z,1.00
2022-09-02T23:49:22.916Z,1.00
2022-09-02T23:51:57.354Z,1.00
2022-09-02T23:54:47.504Z,1.00
2022-09-02T23:57:42.727Z,1.00
